sensor_id;sensor_type;location;lat;lon;timestamp;P1;durP1;ratioP1;P2;durP2;ratioP2
43793;SDS011;29414;44.798;20.366;2023-10-19T00:00:33;7.27;;;6.57;;
43793;SDS011;29414;44.798;20.366;2023-10-19T00:04:36;10.17;;;7.43;;
43793;SDS011;29414;44.798;20.366;2023-10-19T00:08:37;12.97;;;7.37;;
43793;SDS011;29414;44.798;20.366;2023-10-19T00:12:46;8.17;;;6.50;;
43793;SDS011;29414;44.798;20.366;2023-10-19T00:16:54;10.23;;;6.80;;
43793;SDS011;29414;44.798;20.366;2023-10-19T00:21:00;11.93;;;7.10;;
43793;SDS011;29414;44.798;20.366;2023-10-19T00:25:11;9.03;;;6.33;;
43793;SDS011;29414;44.798;20.366;2023-10-19T00:29:13;9.80;;;6.97;;
43793;SDS011;29414;44.798;20.366;2023-10-19T00:33:32;10.57;;;7.10;;
43793;SDS011;29414;44.798;20.366;2023-10-19T00:37:33;12.37;;;7.37;;
43793;SDS011;29414;44.798;20.366;2023-10-19T00:41:42;8.77;;;7.13;;
43793;SDS011;29414;44.798;20.366;2023-10-19T00:45:43;10.30;;;7.73;;
43793;SDS011;29414;44.798;20.366;2023-10-19T00:49:46;10.30;;;7.43;;
43793;SDS011;29414;44.798;20.366;2023-10-19T00:53:47;11.63;;;6.77;;
43793;SDS011;29414;44.798;20.366;2023-10-19T00:57:48;9.83;;;6.80;;
43793;SDS011;29414;44.798;20.366;2023-10-19T01:01:50;9.33;;;6.90;;
43793;SDS011;29414;44.798;20.366;2023-10-19T01:05:53;10.57;;;6.80;;
43793;SDS011;29414;44.798;20.366;2023-10-19T01:09:59;9.00;;;6.87;;
43793;SDS011;29414;44.798;20.366;2023-10-19T01:13:59;9.07;;;6.43;;
43793;SDS011;29414;44.798;20.366;2023-10-19T01:18:00;7.63;;;6.67;;
43793;SDS011;29414;44.798;20.366;2023-10-19T01:22:02;10.20;;;7.47;;
43793;SDS011;29414;44.798;20.366;2023-10-19T01:26:04;8.13;;;7.33;;
43793;SDS011;29414;44.798;20.366;2023-10-19T01:30:11;11.73;;;6.80;;
43793;SDS011;29414;44.798;20.366;2023-10-19T01:34:14;7.53;;;5.93;;
43793;SDS011;29414;44.798;20.366;2023-10-19T01:38:14;7.40;;;6.63;;
43793;SDS011;29414;44.798;20.366;2023-10-19T01:42:15;9.37;;;7.10;;
43793;SDS011;29414;44.798;20.366;2023-10-19T01:46:17;9.37;;;6.30;;
43793;SDS011;29414;44.798;20.366;2023-10-19T01:50:24;13.53;;;6.90;;
43793;SDS011;29414;44.798;20.366;2023-10-19T01:54:25;7.53;;;6.83;;
43793;SDS011;29414;44.798;20.366;2023-10-19T01:58:29;8.43;;;6.83;;
43793;SDS011;29414;44.798;20.366;2023-10-19T02:02:29;7.60;;;5.70;;
43793;SDS011;29414;44.798;20.366;2023-10-19T02:06:33;9.77;;;7.17;;
43793;SDS011;29414;44.798;20.366;2023-10-19T02:10:34;7.20;;;6.50;;
43793;SDS011;29414;44.798;20.366;2023-10-19T02:14:35;8.43;;;6.80;;
43793;SDS011;29414;44.798;20.366;2023-10-19T02:18:37;9.40;;;7.30;;
43793;SDS011;29414;44.798;20.366;2023-10-19T02:22:38;8.33;;;6.37;;
43793;SDS011;29414;44.798;20.366;2023-10-19T02:26:38;8.14;;;6.34;;
43793;SDS011;29414;44.798;20.366;2023-10-19T02:30:40;13.93;;;6.60;;
43793;SDS011;29414;44.798;20.366;2023-10-19T02:34:42;6.67;;;5.90;;
43793;SDS011;29414;44.798;20.366;2023-10-19T02:38:42;11.67;;;6.40;;
43793;SDS011;29414;44.798;20.366;2023-10-19T02:50:50;10.03;;;6.50;;
43793;SDS011;29414;44.798;20.366;2023-10-19T02:54:50;9.83;;;6.70;;
43793;SDS011;29414;44.798;20.366;2023-10-19T02:58:51;9.87;;;6.47;;
43793;SDS011;29414;44.798;20.366;2023-10-19T03:02:51;9.27;;;6.70;;
43793;SDS011;29414;44.798;20.366;2023-10-19T03:06:52;7.47;;;5.63;;
43793;SDS011;29414;44.798;20.366;2023-10-19T03:10:52;7.04;;;6.10;;
43793;SDS011;29414;44.798;20.366;2023-10-19T03:15:04;7.97;;;6.10;;
43793;SDS011;29414;44.798;20.366;2023-10-19T03:19:05;11.23;;;6.23;;
43793;SDS011;29414;44.798;20.366;2023-10-19T03:23:07;7.20;;;5.77;;
43793;SDS011;29414;44.798;20.366;2023-10-19T03:27:11;8.10;;;6.40;;
43793;SDS011;29414;44.798;20.366;2023-10-19T03:31:24;8.03;;;6.60;;
43793;SDS011;29414;44.798;20.366;2023-10-19T03:35:26;9.17;;;6.40;;
43793;SDS011;29414;44.798;20.366;2023-10-19T03:39:27;10.40;;;6.12;;
43793;SDS011;29414;44.798;20.366;2023-10-19T03:43:27;13.33;;;6.23;;
43793;SDS011;29414;44.798;20.366;2023-10-19T03:47:28;8.53;;;7.00;;
43793;SDS011;29414;44.798;20.366;2023-10-19T03:51:37;11.30;;;6.93;;
43793;SDS011;29414;44.798;20.366;2023-10-19T03:55:58;8.25;;;7.13;;
43793;SDS011;29414;44.798;20.366;2023-10-19T03:59:58;7.70;;;7.00;;
43793;SDS011;29414;44.798;20.366;2023-10-19T04:03:59;7.77;;;6.80;;
43793;SDS011;29414;44.798;20.366;2023-10-19T04:08:01;7.37;;;6.57;;
43793;SDS011;29414;44.798;20.366;2023-10-19T04:12:06;8.93;;;6.45;;
43793;SDS011;29414;44.798;20.366;2023-10-19T04:16:07;9.18;;;6.97;;
43793;SDS011;29414;44.798;20.366;2023-10-19T04:20:10;9.00;;;7.60;;
43793;SDS011;29414;44.798;20.366;2023-10-19T04:24:16;7.57;;;6.87;;
43793;SDS011;29414;44.798;20.366;2023-10-19T04:28:19;9.97;;;7.40;;
43793;SDS011;29414;44.798;20.366;2023-10-19T04:32:21;7.20;;;6.30;;
43793;SDS011;29414;44.798;20.366;2023-10-19T04:36:28;10.77;;;7.60;;
43793;SDS011;29414;44.798;20.366;2023-10-19T04:40:28;10.17;;;7.47;;
43793;SDS011;29414;44.798;20.366;2023-10-19T04:44:29;8.30;;;7.20;;
43793;SDS011;29414;44.798;20.366;2023-10-19T04:48:30;10.90;;;7.70;;
43793;SDS011;29414;44.798;20.366;2023-10-19T04:52:31;9.27;;;7.23;;
43793;SDS011;29414;44.798;20.366;2023-10-19T04:56:32;11.27;;;7.90;;
43793;SDS011;29414;44.798;20.366;2023-10-19T05:00:32;7.53;;;6.07;;
43793;SDS011;29414;44.798;20.366;2023-10-19T05:04:33;7.77;;;5.93;;
43793;SDS011;29414;44.798;20.366;2023-10-19T05:08:33;9.63;;;6.57;;
43793;SDS011;29414;44.798;20.366;2023-10-19T05:12:33;7.17;;;6.33;;
43793;SDS011;29414;44.798;20.366;2023-10-19T05:16:34;7.10;;;6.40;;
43793;SDS011;29414;44.798;20.366;2023-10-19T05:20:34;9.03;;;7.53;;
43793;SDS011;29414;44.798;20.366;2023-10-19T05:24:37;7.17;;;5.70;;
43793;SDS011;29414;44.798;20.366;2023-10-19T05:28:37;8.37;;;6.40;;
43793;SDS011;29414;44.798;20.366;2023-10-19T05:32:38;9.30;;;5.43;;
43793;SDS011;29414;44.798;20.366;2023-10-19T05:36:38;8.57;;;5.80;;
43793;SDS011;29414;44.798;20.366;2023-10-19T05:40:43;8.80;;;5.90;;
43793;SDS011;29414;44.798;20.366;2023-10-19T05:44:43;7.00;;;5.97;;
43793;SDS011;29414;44.798;20.366;2023-10-19T05:48:44;7.80;;;6.13;;
43793;SDS011;29414;44.798;20.366;2023-10-19T05:52:45;6.53;;;5.80;;
43793;SDS011;29414;44.798;20.366;2023-10-19T05:56:45;7.30;;;5.50;;
43793;SDS011;29414;44.798;20.366;2023-10-19T06:00:46;10.47;;;5.93;;
43793;SDS011;29414;44.798;20.366;2023-10-19T06:04:46;8.67;;;5.93;;
43793;SDS011;29414;44.798;20.366;2023-10-19T06:08:47;9.50;;;6.50;;
43793;SDS011;29414;44.798;20.366;2023-10-19T06:12:48;9.63;;;6.13;;
43793;SDS011;29414;44.798;20.366;2023-10-19T06:16:49;10.57;;;6.80;;
43793;SDS011;29414;44.798;20.366;2023-10-19T06:20:50;9.37;;;6.77;;
43793;SDS011;29414;44.798;20.366;2023-10-19T06:24:51;8.03;;;5.73;;
43793;SDS011;29414;44.798;20.366;2023-10-19T06:28:52;7.70;;;5.80;;
43793;SDS011;29414;44.798;20.366;2023-10-19T06:32:58;6.90;;;5.53;;
43793;SDS011;29414;44.798;20.366;2023-10-19T06:37:01;11.07;;;6.17;;
43793;SDS011;29414;44.798;20.366;2023-10-19T06:41:10;7.70;;;6.07;;
43793;SDS011;29414;44.798;20.366;2023-10-19T06:45:11;7.40;;;5.43;;
43793;SDS011;29414;44.798;20.366;2023-10-19T06:49:13;10.90;;;6.17;;
43793;SDS011;29414;44.798;20.366;2023-10-19T06:53:15;6.73;;;6.07;;
43793;SDS011;29414;44.798;20.366;2023-10-19T06:57:15;7.00;;;5.60;;
43793;SDS011;29414;44.798;20.366;2023-10-19T07:01:16;7.63;;;5.23;;
43793;SDS011;29414;44.798;20.366;2023-10-19T07:05:18;7.47;;;5.20;;
43793;SDS011;29414;44.798;20.366;2023-10-19T07:09:21;6.70;;;6.07;;
43793;SDS011;29414;44.798;20.366;2023-10-19T07:13:21;7.73;;;5.63;;
43793;SDS011;29414;44.798;20.366;2023-10-19T07:17:22;9.37;;;6.43;;
43793;SDS011;29414;44.798;20.366;2023-10-19T07:21:22;8.74;;;5.18;;
43793;SDS011;29414;44.798;20.366;2023-10-19T07:25:23;8.50;;;5.97;;
43793;SDS011;29414;44.798;20.366;2023-10-19T07:29:25;6.35;;;5.45;;
43793;SDS011;29414;44.798;20.366;2023-10-19T07:33:25;6.32;;;5.40;;
43793;SDS011;29414;44.798;20.366;2023-10-19T07:37:26;5.88;;;4.35;;
43793;SDS011;29414;44.798;20.366;2023-10-19T07:41:28;7.30;;;4.40;;
43793;SDS011;29414;44.798;20.366;2023-10-19T07:45:35;7.72;;;4.97;;
43793;SDS011;29414;44.798;20.366;2023-10-19T07:49:36;7.47;;;4.80;;
43793;SDS011;29414;44.798;20.366;2023-10-19T07:53:39;5.18;;;4.28;;
43793;SDS011;29414;44.798;20.366;2023-10-19T07:57:40;6.75;;;4.32;;
43793;SDS011;29414;44.798;20.366;2023-10-19T08:01:43;7.10;;;4.50;;
43793;SDS011;29414;44.798;20.366;2023-10-19T08:05:43;9.48;;;4.38;;
43793;SDS011;29414;44.798;20.366;2023-10-19T08:09:43;4.82;;;4.30;;
43793;SDS011;29414;44.798;20.366;2023-10-19T08:13:43;6.45;;;4.45;;
43793;SDS011;29414;44.798;20.366;2023-10-19T08:17:45;8.27;;;4.60;;
43793;SDS011;29414;44.798;20.366;2023-10-19T08:21:45;4.88;;;4.18;;
43793;SDS011;29414;44.798;20.366;2023-10-19T08:25:45;7.00;;;4.28;;
43793;SDS011;29414;44.798;20.366;2023-10-19T08:29:46;5.30;;;3.97;;
43793;SDS011;29414;44.798;20.366;2023-10-19T08:33:46;6.65;;;4.32;;
43793;SDS011;29414;44.798;20.366;2023-10-19T08:37:47;6.45;;;4.22;;
43793;SDS011;29414;44.798;20.366;2023-10-19T08:41:50;5.68;;;3.55;;
43793;SDS011;29414;44.798;20.366;2023-10-19T08:45:53;4.25;;;3.85;;
43793;SDS011;29414;44.798;20.366;2023-10-19T08:49:54;6.53;;;4.20;;
43793;SDS011;29414;44.798;20.366;2023-10-19T08:53:55;4.90;;;3.42;;
43793;SDS011;29414;44.798;20.366;2023-10-19T08:57:55;4.30;;;3.40;;
43793;SDS011;29414;44.798;20.366;2023-10-19T09:02:02;4.57;;;3.28;;
43793;SDS011;29414;44.798;20.366;2023-10-19T09:06:03;6.63;;;3.45;;
43793;SDS011;29414;44.798;20.366;2023-10-19T09:10:05;5.88;;;3.40;;
43793;SDS011;29414;44.798;20.366;2023-10-19T09:14:05;4.00;;;3.00;;
43793;SDS011;29414;44.798;20.366;2023-10-19T09:18:16;6.10;;;3.15;;
43793;SDS011;29414;44.798;20.366;2023-10-19T09:22:16;4.35;;;2.90;;
43793;SDS011;29414;44.798;20.366;2023-10-19T09:26:18;4.40;;;3.15;;
43793;SDS011;29414;44.798;20.366;2023-10-19T09:30:19;3.20;;;2.83;;
43793;SDS011;29414;44.798;20.366;2023-10-19T09:34:20;5.82;;;3.50;;
43793;SDS011;29414;44.798;20.366;2023-10-19T09:38:22;5.03;;;3.40;;
43793;SDS011;29414;44.798;20.366;2023-10-19T09:42:22;7.45;;;4.07;;
43793;SDS011;29414;44.798;20.366;2023-10-19T09:46:27;4.32;;;3.40;;
43793;SDS011;29414;44.798;20.366;2023-10-19T09:50:29;6.65;;;4.18;;
43793;SDS011;29414;44.798;20.366;2023-10-19T09:58:52;8.88;;;3.88;;
43793;SDS011;29414;44.798;20.366;2023-10-19T10:02:53;4.10;;;3.70;;
43793;SDS011;29414;44.798;20.366;2023-10-19T10:10:55;5.88;;;4.03;;
43793;SDS011;29414;44.798;20.366;2023-10-19T10:14:56;5.20;;;3.92;;
43793;SDS011;29414;44.798;20.366;2023-10-19T10:18:58;4.65;;;4.10;;
43793;SDS011;29414;44.798;20.366;2023-10-19T10:23:16;5.30;;;4.00;;
43793;SDS011;29414;44.798;20.366;2023-10-19T10:27:19;8.15;;;3.95;;
43793;SDS011;29414;44.798;20.366;2023-10-19T10:31:20;4.70;;;3.60;;
43793;SDS011;29414;44.798;20.366;2023-10-19T10:39:37;6.07;;;3.47;;
43793;SDS011;29414;44.798;20.366;2023-10-19T10:43:51;9.07;;;3.75;;
43793;SDS011;29414;44.798;20.366;2023-10-19T10:47:52;4.63;;;3.17;;
43793;SDS011;29414;44.798;20.366;2023-10-19T10:51:53;8.25;;;3.30;;
43793;SDS011;29414;44.798;20.366;2023-10-19T10:55:54;5.50;;;3.75;;
43793;SDS011;29414;44.798;20.366;2023-10-19T11:00:01;5.50;;;3.24;;
43793;SDS011;29414;44.798;20.366;2023-10-19T11:04:05;7.78;;;4.40;;
43793;SDS011;29414;44.798;20.366;2023-10-19T11:12:10;9.38;;;4.10;;
43793;SDS011;29414;44.798;20.366;2023-10-19T11:16:10;7.38;;;3.97;;
43793;SDS011;29414;44.798;20.366;2023-10-19T11:20:20;4.35;;;3.92;;
43793;SDS011;29414;44.798;20.366;2023-10-19T11:24:24;9.02;;;5.32;;
43793;SDS011;29414;44.798;20.366;2023-10-19T11:28:24;4.53;;;3.65;;
43793;SDS011;29414;44.798;20.366;2023-10-19T11:32:35;5.60;;;4.50;;
43793;SDS011;29414;44.798;20.366;2023-10-19T11:36:38;4.20;;;3.53;;
43793;SDS011;29414;44.798;20.366;2023-10-19T11:40:38;6.90;;;4.60;;
43793;SDS011;29414;44.798;20.366;2023-10-19T11:44:39;5.45;;;3.00;;
43793;SDS011;29414;44.798;20.366;2023-10-19T11:48:39;6.47;;;3.60;;
43793;SDS011;29414;44.798;20.366;2023-10-19T11:52:43;5.57;;;3.58;;
43793;SDS011;29414;44.798;20.366;2023-10-19T11:56:43;7.55;;;3.15;;
43793;SDS011;29414;44.798;20.366;2023-10-19T12:00:46;4.18;;;3.13;;
43793;SDS011;29414;44.798;20.366;2023-10-19T12:04:47;5.05;;;3.95;;
43793;SDS011;29414;44.798;20.366;2023-10-19T12:08:47;4.47;;;3.00;;
43793;SDS011;29414;44.798;20.366;2023-10-19T12:12:47;5.84;;;3.84;;
43793;SDS011;29414;44.798;20.366;2023-10-19T12:16:50;6.45;;;3.97;;
43793;SDS011;29414;44.798;20.366;2023-10-19T12:20:50;4.18;;;3.28;;
43793;SDS011;29414;44.798;20.366;2023-10-19T12:24:51;8.98;;;4.22;;
43793;SDS011;29414;44.798;20.366;2023-10-19T12:28:51;4.93;;;3.33;;
43793;SDS011;29414;44.798;20.366;2023-10-19T12:32:52;4.97;;;3.58;;
43793;SDS011;29414;44.798;20.366;2023-10-19T12:36:52;5.65;;;3.50;;
43793;SDS011;29414;44.798;20.366;2023-10-19T12:44:58;6.72;;;4.68;;
43793;SDS011;29414;44.798;20.366;2023-10-19T12:48:59;6.05;;;4.05;;
43793;SDS011;29414;44.798;20.366;2023-10-19T12:53:00;4.22;;;3.80;;
43793;SDS011;29414;44.798;20.366;2023-10-19T12:57:00;7.90;;;4.43;;
43793;SDS011;29414;44.798;20.366;2023-10-19T13:01:00;5.25;;;3.97;;
43793;SDS011;29414;44.798;20.366;2023-10-19T13:05:01;6.13;;;3.10;;
43793;SDS011;29414;44.798;20.366;2023-10-19T13:09:01;4.52;;;3.48;;
43793;SDS011;29414;44.798;20.366;2023-10-19T13:13:02;5.10;;;3.47;;
43793;SDS011;29414;44.798;20.366;2023-10-19T13:17:03;7.63;;;4.47;;
43793;SDS011;29414;44.798;20.366;2023-10-19T13:21:03;10.27;;;4.60;;
43793;SDS011;29414;44.798;20.366;2023-10-19T13:25:11;7.53;;;4.68;;
43793;SDS011;29414;44.798;20.366;2023-10-19T13:29:16;6.10;;;4.65;;
43793;SDS011;29414;44.798;20.366;2023-10-19T13:33:17;6.45;;;5.10;;
43793;SDS011;29414;44.798;20.366;2023-10-19T13:37:18;11.77;;;5.20;;
43793;SDS011;29414;44.798;20.366;2023-10-19T13:41:19;6.78;;;4.25;;
43793;SDS011;29414;44.798;20.366;2023-10-19T13:45:19;6.32;;;4.30;;
43793;SDS011;29414;44.798;20.366;2023-10-19T13:49:19;8.52;;;4.80;;
43793;SDS011;29414;44.798;20.366;2023-10-19T13:53:22;5.85;;;4.28;;
43793;SDS011;29414;44.798;20.366;2023-10-19T13:57:23;6.80;;;4.50;;
43793;SDS011;29414;44.798;20.366;2023-10-19T14:01:23;5.50;;;4.03;;
43793;SDS011;29414;44.798;20.366;2023-10-19T14:05:25;4.90;;;4.00;;
43793;SDS011;29414;44.798;20.366;2023-10-19T14:09:26;7.80;;;5.72;;
43793;SDS011;29414;44.798;20.366;2023-10-19T14:13:28;7.38;;;5.60;;
43793;SDS011;29414;44.798;20.366;2023-10-19T14:17:29;11.98;;;6.72;;
43793;SDS011;29414;44.798;20.366;2023-10-19T14:21:30;7.30;;;6.47;;
43793;SDS011;29414;44.798;20.366;2023-10-19T14:25:31;9.95;;;7.25;;
43793;SDS011;29414;44.798;20.366;2023-10-19T14:29:31;10.18;;;6.30;;
43793;SDS011;29414;44.798;20.366;2023-10-19T14:33:31;7.20;;;5.90;;
43793;SDS011;29414;44.798;20.366;2023-10-19T14:37:33;9.90;;;6.20;;
43793;SDS011;29414;44.798;20.366;2023-10-19T14:41:33;9.32;;;6.50;;
43793;SDS011;29414;44.798;20.366;2023-10-19T14:45:34;9.57;;;6.38;;
43793;SDS011;29414;44.798;20.366;2023-10-19T14:49:34;8.40;;;5.57;;
43793;SDS011;29414;44.798;20.366;2023-10-19T14:53:35;8.57;;;5.47;;
43793;SDS011;29414;44.798;20.366;2023-10-19T14:57:35;8.57;;;5.55;;
43793;SDS011;29414;44.798;20.366;2023-10-19T15:01:37;6.85;;;4.53;;
43793;SDS011;29414;44.798;20.366;2023-10-19T15:05:37;8.13;;;5.05;;
43793;SDS011;29414;44.798;20.366;2023-10-19T15:09:37;6.82;;;5.28;;
43793;SDS011;29414;44.798;20.366;2023-10-19T15:13:38;6.36;;;4.76;;
43793;SDS011;29414;44.798;20.366;2023-10-19T15:17:38;7.22;;;4.10;;
43793;SDS011;29414;44.798;20.366;2023-10-19T15:21:39;6.78;;;4.85;;
43793;SDS011;29414;44.798;20.366;2023-10-19T15:25:43;6.72;;;4.60;;
43793;SDS011;29414;44.798;20.366;2023-10-19T15:29:43;7.00;;;4.85;;
43793;SDS011;29414;44.798;20.366;2023-10-19T15:33:44;9.00;;;4.72;;
43793;SDS011;29414;44.798;20.366;2023-10-19T15:37:45;6.22;;;4.07;;
43793;SDS011;29414;44.798;20.366;2023-10-19T15:41:48;5.47;;;4.32;;
43793;SDS011;29414;44.798;20.366;2023-10-19T15:45:49;7.98;;;4.46;;
43793;SDS011;29414;44.798;20.366;2023-10-19T15:49:50;8.40;;;4.28;;
43793;SDS011;29414;44.798;20.366;2023-10-19T15:53:52;6.18;;;4.43;;
43793;SDS011;29414;44.798;20.366;2023-10-19T15:57:52;5.60;;;4.20;;
43793;SDS011;29414;44.798;20.366;2023-10-19T16:01:52;6.50;;;4.20;;
43793;SDS011;29414;44.798;20.366;2023-10-19T16:05:52;8.80;;;4.82;;
43793;SDS011;29414;44.798;20.366;2023-10-19T16:09:53;6.20;;;4.72;;
43793;SDS011;29414;44.798;20.366;2023-10-19T16:13:53;13.68;;;5.00;;
43793;SDS011;29414;44.798;20.366;2023-10-19T16:17:54;6.05;;;5.03;;
43793;SDS011;29414;44.798;20.366;2023-10-19T16:21:54;6.47;;;4.43;;
43793;SDS011;29414;44.798;20.366;2023-10-19T16:25:58;8.10;;;4.75;;
43793;SDS011;29414;44.798;20.366;2023-10-19T16:29:59;8.47;;;4.80;;
43793;SDS011;29414;44.798;20.366;2023-10-19T16:34:00;6.28;;;5.03;;
43793;SDS011;29414;44.798;20.366;2023-10-19T16:38:00;7.25;;;4.97;;
43793;SDS011;29414;44.798;20.366;2023-10-19T16:42:00;7.38;;;5.53;;
43793;SDS011;29414;44.798;20.366;2023-10-19T16:46:01;7.13;;;4.72;;
43793;SDS011;29414;44.798;20.366;2023-10-19T16:50:02;7.55;;;4.38;;
43793;SDS011;29414;44.798;20.366;2023-10-19T16:54:02;7.07;;;4.35;;
43793;SDS011;29414;44.798;20.366;2023-10-19T16:58:03;6.88;;;4.82;;
43793;SDS011;29414;44.798;20.366;2023-10-19T17:02:05;8.27;;;4.63;;
43793;SDS011;29414;44.798;20.366;2023-10-19T17:06:06;8.65;;;5.07;;
43793;SDS011;29414;44.798;20.366;2023-10-19T17:10:06;10.80;;;4.90;;
43793;SDS011;29414;44.798;20.366;2023-10-19T17:14:06;7.22;;;5.05;;
43793;SDS011;29414;44.798;20.366;2023-10-19T17:18:07;8.27;;;5.32;;
43793;SDS011;29414;44.798;20.366;2023-10-19T17:22:11;11.73;;;5.90;;
43793;SDS011;29414;44.798;20.366;2023-10-19T17:26:11;8.23;;;6.32;;
43793;SDS011;29414;44.798;20.366;2023-10-19T17:30:11;11.95;;;6.38;;
43793;SDS011;29414;44.798;20.366;2023-10-19T17:34:13;7.22;;;5.55;;
43793;SDS011;29414;44.798;20.366;2023-10-19T17:38:13;9.73;;;5.80;;
43793;SDS011;29414;44.798;20.366;2023-10-19T17:42:13;10.45;;;5.45;;
43793;SDS011;29414;44.798;20.366;2023-10-19T17:46:14;9.40;;;5.60;;
43793;SDS011;29414;44.798;20.366;2023-10-19T17:50:14;9.88;;;5.03;;
43793;SDS011;29414;44.798;20.366;2023-10-19T17:54:16;9.43;;;5.07;;
43793;SDS011;29414;44.798;20.366;2023-10-19T17:58:17;7.55;;;4.50;;
43793;SDS011;29414;44.798;20.366;2023-10-19T18:02:17;7.22;;;4.35;;
43793;SDS011;29414;44.798;20.366;2023-10-19T18:06:17;10.02;;;5.18;;
43793;SDS011;29414;44.798;20.366;2023-10-19T18:10:18;10.98;;;4.85;;
43793;SDS011;29414;44.798;20.366;2023-10-19T18:14:19;7.60;;;5.32;;
43793;SDS011;29414;44.798;20.366;2023-10-19T18:18:20;11.90;;;5.15;;
43793;SDS011;29414;44.798;20.366;2023-10-19T18:22:21;7.55;;;4.80;;
43793;SDS011;29414;44.798;20.366;2023-10-19T18:26:21;10.00;;;4.65;;
43793;SDS011;29414;44.798;20.366;2023-10-19T18:30:22;7.45;;;4.35;;
43793;SDS011;29414;44.798;20.366;2023-10-19T18:34:22;7.97;;;4.68;;
43793;SDS011;29414;44.798;20.366;2023-10-19T18:38:25;6.70;;;3.90;;
43793;SDS011;29414;44.798;20.366;2023-10-19T18:42:25;10.10;;;4.75;;
43793;SDS011;29414;44.798;20.366;2023-10-19T18:46:26;8.27;;;4.25;;
43793;SDS011;29414;44.798;20.366;2023-10-19T18:50:27;9.57;;;5.38;;
43793;SDS011;29414;44.798;20.366;2023-10-19T18:54:27;10.15;;;5.32;;
43793;SDS011;29414;44.798;20.366;2023-10-19T18:58:28;11.50;;;5.00;;
43793;SDS011;29414;44.798;20.366;2023-10-19T19:02:29;14.80;;;5.75;;
43793;SDS011;29414;44.798;20.366;2023-10-19T19:06:29;10.70;;;4.75;;
43793;SDS011;29414;44.798;20.366;2023-10-19T19:10:29;6.93;;;4.47;;
43793;SDS011;29414;44.798;20.366;2023-10-19T19:14:33;7.72;;;4.53;;
43793;SDS011;29414;44.798;20.366;2023-10-19T19:18:33;11.77;;;4.50;;
43793;SDS011;29414;44.798;20.366;2023-10-19T19:22:33;11.13;;;4.82;;
43793;SDS011;29414;44.798;20.366;2023-10-19T19:26:34;8.75;;;4.15;;
43793;SDS011;29414;44.798;20.366;2023-10-19T19:30:35;6.63;;;3.92;;
43793;SDS011;29414;44.798;20.366;2023-10-19T19:34:36;9.27;;;4.38;;
43793;SDS011;29414;44.798;20.366;2023-10-19T19:38:37;9.12;;;4.60;;
43793;SDS011;29414;44.798;20.366;2023-10-19T19:42:37;6.63;;;5.00;;
43793;SDS011;29414;44.798;20.366;2023-10-19T19:46:44;7.85;;;5.13;;
43793;SDS011;29414;44.798;20.366;2023-10-19T19:50:44;10.48;;;5.32;;
43793;SDS011;29414;44.798;20.366;2023-10-19T19:54:45;9.98;;;4.82;;
43793;SDS011;29414;44.798;20.366;2023-10-19T19:58:45;11.55;;;5.32;;
43793;SDS011;29414;44.798;20.366;2023-10-19T20:02:46;5.78;;;4.58;;
43793;SDS011;29414;44.798;20.366;2023-10-19T20:06:46;9.85;;;5.03;;
43793;SDS011;29414;44.798;20.366;2023-10-19T20:10:46;9.85;;;5.40;;
43793;SDS011;29414;44.798;20.366;2023-10-19T20:14:47;9.35;;;5.30;;
43793;SDS011;29414;44.798;20.366;2023-10-19T20:18:47;10.95;;;5.38;;
43793;SDS011;29414;44.798;20.366;2023-10-19T20:22:47;8.25;;;4.82;;
43793;SDS011;29414;44.798;20.366;2023-10-19T20:26:47;15.38;;;5.38;;
43793;SDS011;29414;44.798;20.366;2023-10-19T20:30:48;10.16;;;4.68;;
43793;SDS011;29414;44.798;20.366;2023-10-19T20:34:49;7.18;;;4.57;;
43793;SDS011;29414;44.798;20.366;2023-10-19T20:38:49;11.65;;;5.18;;
43793;SDS011;29414;44.798;20.366;2023-10-19T20:42:49;10.93;;;5.60;;
43793;SDS011;29414;44.798;20.366;2023-10-19T20:46:58;10.45;;;5.45;;
43793;SDS011;29414;44.798;20.366;2023-10-19T20:50:58;9.00;;;5.53;;
43793;SDS011;29414;44.798;20.366;2023-10-19T20:54:59;9.23;;;4.45;;
43793;SDS011;29414;44.798;20.366;2023-10-19T20:58:59;10.96;;;5.24;;
43793;SDS011;29414;44.798;20.366;2023-10-19T21:02:59;8.54;;;4.54;;
43793;SDS011;29414;44.798;20.366;2023-10-19T21:06:59;5.93;;;3.70;;
43793;SDS011;29414;44.798;20.366;2023-10-19T21:11:00;12.57;;;4.47;;
43793;SDS011;29414;44.798;20.366;2023-10-19T21:15:00;9.23;;;4.28;;
43793;SDS011;29414;44.798;20.366;2023-10-19T21:19:00;7.44;;;4.38;;
43793;SDS011;29414;44.798;20.366;2023-10-19T21:23:01;13.20;;;4.70;;
43793;SDS011;29414;44.798;20.366;2023-10-19T21:27:01;8.52;;;4.15;;
43793;SDS011;29414;44.798;20.366;2023-10-19T21:31:03;11.48;;;4.20;;
43793;SDS011;29414;44.798;20.366;2023-10-19T21:35:03;9.65;;;4.90;;
43793;SDS011;29414;44.798;20.366;2023-10-19T21:39:03;11.27;;;3.75;;
43793;SDS011;29414;44.798;20.366;2023-10-19T21:43:04;9.82;;;4.57;;
43793;SDS011;29414;44.798;20.366;2023-10-19T21:47:04;9.25;;;3.85;;
43793;SDS011;29414;44.798;20.366;2023-10-19T21:51:04;10.93;;;4.10;;
43793;SDS011;29414;44.798;20.366;2023-10-19T21:55:05;8.05;;;4.00;;
43793;SDS011;29414;44.798;20.366;2023-10-19T21:59:06;6.53;;;3.40;;
43793;SDS011;29414;44.798;20.366;2023-10-19T22:03:07;8.18;;;3.60;;
43793;SDS011;29414;44.798;20.366;2023-10-19T22:07:07;9.18;;;3.88;;
43793;SDS011;29414;44.798;20.366;2023-10-19T22:11:07;8.98;;;3.70;;
43793;SDS011;29414;44.798;20.366;2023-10-19T22:15:08;11.25;;;3.60;;
43793;SDS011;29414;44.798;20.366;2023-10-19T22:19:11;9.88;;;3.58;;
43793;SDS011;29414;44.798;20.366;2023-10-19T22:23:11;10.68;;;3.20;;
43793;SDS011;29414;44.798;20.366;2023-10-19T22:27:14;7.60;;;3.78;;
43793;SDS011;29414;44.798;20.366;2023-10-19T22:31:14;8.95;;;3.50;;
43793;SDS011;29414;44.798;20.366;2023-10-19T22:35:15;9.18;;;3.45;;
43793;SDS011;29414;44.798;20.366;2023-10-19T22:39:17;9.80;;;3.63;;
43793;SDS011;29414;44.798;20.366;2023-10-19T22:43:19;12.30;;;3.95;;
43793;SDS011;29414;44.798;20.366;2023-10-19T22:47:19;11.55;;;3.83;;
43793;SDS011;29414;44.798;20.366;2023-10-19T22:51:19;11.23;;;3.35;;
43793;SDS011;29414;44.798;20.366;2023-10-19T22:55:20;9.75;;;3.83;;
43793;SDS011;29414;44.798;20.366;2023-10-19T22:59:21;10.38;;;3.90;;
43793;SDS011;29414;44.798;20.366;2023-10-19T23:03:21;8.95;;;3.72;;
43793;SDS011;29414;44.798;20.366;2023-10-19T23:07:22;9.82;;;3.42;;
43793;SDS011;29414;44.798;20.366;2023-10-19T23:11:22;8.43;;;3.40;;
43793;SDS011;29414;44.798;20.366;2023-10-19T23:15:26;8.27;;;3.25;;
43793;SDS011;29414;44.798;20.366;2023-10-19T23:19:42;14.25;;;3.85;;
43793;SDS011;29414;44.798;20.366;2023-10-19T23:23:44;8.68;;;3.60;;
43793;SDS011;29414;44.798;20.366;2023-10-19T23:27:45;7.55;;;3.47;;
43793;SDS011;29414;44.798;20.366;2023-10-19T23:31:45;11.52;;;3.80;;
43793;SDS011;29414;44.798;20.366;2023-10-19T23:35:49;8.23;;;3.55;;
43793;SDS011;29414;44.798;20.366;2023-10-19T23:39:49;7.40;;;3.78;;
43793;SDS011;29414;44.798;20.366;2023-10-19T23:43:49;8.15;;;3.90;;
43793;SDS011;29414;44.798;20.366;2023-10-19T23:47:50;9.70;;;4.45;;
43793;SDS011;29414;44.798;20.366;2023-10-19T23:51:51;7.28;;;3.75;;
43793;SDS011;29414;44.798;20.366;2023-10-19T23:55:51;9.20;;;4.35;;
43793;SDS011;29414;44.798;20.366;2023-10-19T23:59:51;9.50;;;4.13;;
